Latest Weather Observations for Casey*

IDT60801

Issued at 12:35 pm EDT Sunday 26 October 2014 (issued every 30 minutes, with the page automatically refreshed every 10 minutes)

About weather observations | Map of weather stations | Latest weather observations for ANT | Other Formats
Station Details ID: 300017 Name: CASEY Lat: -66.28 Lon: 110.52 Height: 40.0 m
Data from the previous 72 hours. | See also: Recent months at Casey*
Date/Time
EDT
Temp
°C
App
Temp
°C
Dew
Point
Rel
Hum
%
Delta-T
°C
Wind Press
QNH
hPa
Press
MSL
hPa
Rain
since 9 am
mm
Dir
 
Spd
km/h
Gust
km/h
Spd
kts
Gust
kts
26/12:30pm -5.5 -33.2 -14.5 49 - E 128 150 69 81 974.4 - -
26/12:00pm -5.4 -33.8 -14.9 47 - E 132 152 71 82 973.8 - -
26/11:30am -5.5 -34.2 -15.5 45 - E 133 152 72 82 973.7 - -
26/11:00am -4.9 -33.5 -14.4 47 - E 133 156 72 84 974.0 974.4 -
26/10:30am -5.3 -33.0 -14.6 48 - E 128 148 69 80 974.4 - -
26/10:02am -5.2 -32.1 -15.0 46 - E 124 143 67 77 975.9 - -
26/10:00am -5.2 -32.5 -15.2 45 - E 126 143 68 77 975.8 - -
26/09:30am -5.3 -32.2 -14.3 49 - E 124 143 67 77 976.0 - -
26/09:00am -4.8 -31.7 -14.9 45 - E 124 143 67 77 976.8 - -
26/08:30am -4.7 -31.2 -14.8 45 - E 122 143 66 77 976.4 - -
26/08:01am -4.9 -31.0 -14.4 47 - E 120 139 65 75 976.7 - -
26/08:00am -4.9 -31.0 -14.4 47 - E 120 137 65 74 976.9 977.3 -
26/07:30am -5.8 -31.3 -12.5 59 - E 117 139 63 75 977.3 - -
26/07:08am -5.1 -30.7 -14.6 47 - E 117 135 63 73 977.8 - -
26/07:00am -5.2 -30.8 -15.0 46 - E 117 133 63 72 977.9 - -
26/06:30am -5.1 -30.3 -15.2 45 - E 115 132 62 71 978.3 - -
26/06:02am -5.4 -30.2 -14.4 49 - E 113 132 61 71 978.8 - -
26/06:00am -5.3 -30.5 -14.8 47 - E 115 132 62 71 978.2 - -
26/05:40am -5.2 -31.2 -15.2 45 - E 119 137 64 74 978.5 - -
26/05:30am -5.3 -31.3 -14.8 47 - E 119 135 64 73 978.5 - -
26/05:00am -5.2 -30.7 -13.7 51 - E 117 137 63 74 978.4 978.9 -
26/04:30am -5.0 -29.4 -13.1 53 - E 111 126 60 68 978.8 - -
26/04:00am -5.1 -28.4 -12.1 58 - E 106 119 57 64 979.5 - -
26/03:30am -5.8 -28.0 -11.7 63 - E 100 117 54 63 980.4 - -
26/03:24am -5.6 -27.4 -11.9 61 - E 98 117 53 63 980.5 - -
26/03:00am -5.8 -27.2 -11.5 64 - E 96 111 52 60 981.1 - -
26/02:30am -6.0 -26.8 -11.1 67 - E 93 106 50 57 981.7 - -
26/02:19am -6.1 -27.3 -11.0 68 - E 95 107 51 58 981.6 - -
26/02:00am -5.9 -23.5 -11.4 65 - E 76 87 41 47 983.2 983.7 -
26/01:30am -6.0 -21.2 -12.1 62 - E 63 76 34 41 984.8 - -
26/01:00am -5.8 -21.4 -12.3 60 - E 65 78 35 42 985.0 - -
26/12:50am -5.9 -19.4 -12.4 60 - E 54 65 29 35 986.0 - -
26/12:47am -6.4 -14.9 -11.9 65 - ESE 28 46 15 25 986.7 - -
26/12:30am -6.0 -13.0 -14.7 50 - N 19 24 10 13 986.5 - -
26/12:00am -7.7 -14.3 -15.4 54 - WSW 17 32 9 17 987.0 - -
 
Date/Time
EDT
Temp
°C
App
Temp
°C
Dew
Point
Rel
Hum
%
Delta-T
°C
Wind Press
QNH
hPa
Press
MSL
hPa
Rain
since 9 am
mm
Dir
 
Spd
km/h
Gust
km/h
Spd
kts
Gust
kts
25/11:30pm -9.2 -16.2 -14.7 64 - S 19 22 10 12 987.8 - -
25/11:00pm -9.3 -17.2 -15.0 63 - S 24 30 13 16 988.0 988.4 -
25/10:30pm -9.2 -18.8 -14.5 65 - SSE 33 46 18 25 988.2 - -
25/10:16pm -8.2 -17.7 -15.6 55 - SSE 32 39 17 21 988.4 - -
25/10:13pm -7.8 -18.6 -15.7 53 - ESE 39 57 21 31 988.2 - -
25/10:00pm -7.6 -21.7 -17.7 44 - E 56 76 30 41 988.0 - -
25/09:57pm -7.7 -20.7 -17.5 45 - E 50 72 27 39 989.0 - -
25/09:41pm -8.4 -22.6 -14.4 62 - SE 57 91 31 49 988.2 - -
25/09:40pm -8.4 -21.2 -14.4 62 - SE 50 61 27 33 988.3 - -
25/09:38pm -8.1 -25.1 -13.7 64 - E 72 102 39 55 987.8 - -
25/09:37pm -8.1 -25.1 -13.9 63 - E 72 85 39 46 987.7 - -
25/09:30pm -8.0 -20.4 -14.0 62 - E 48 87 26 47 988.7 - -
25/09:27pm -8.0 -20.0 -13.8 63 - E 46 87 25 47 988.5 - -
25/09:22pm -7.5 -18.2 -13.3 63 - E 39 65 21 35 989.1 - -
25/09:06pm -8.3 -16.9 -13.0 69 - ESE 28 35 15 19 989.3 - -
25/09:00pm -8.1 -19.5 -12.8 69 - E 43 54 23 29 989.2 - -
25/08:30pm -7.5 -18.9 -12.9 65 - E 43 50 23 27 989.1 - -
25/08:00pm -7.2 -18.8 -12.6 65 - E 44 50 24 27 989.1 989.5 -
25/07:30pm -7.1 -18.7 -12.5 65 - E 44 50 24 27 989.1 - -
25/07:00pm -7.0 -19.0 -12.3 66 - E 46 54 25 29 989.2 - -
25/06:30pm -7.0 -17.2 -12.4 65 - E 37 50 20 27 989.5 - -
25/06:00pm -7.0 -17.2 -12.3 66 - ENE 37 44 20 24 989.7 - -
25/05:30pm -6.7 -16.0 -12.7 62 - ENE 32 39 17 21 989.9 - -
25/05:00pm -7.1 -16.0 -12.5 65 - ENE 30 43 16 23 990.3 990.7 -
25/04:30pm -7.9 -17.4 -12.9 67 - NE 33 44 18 24 990.6 - -
25/04:00pm -8.2 -17.5 -13.0 68 - NE 32 41 17 22 990.8 - -
25/03:30pm -8.2 -16.8 -13.0 68 - NE 28 33 15 18 991.0 - -
25/03:00pm -8.4 -17.0 -13.6 66 - NE 28 33 15 18 991.0 - -
25/02:30pm -8.3 -15.4 -13.5 66 - NE 20 26 11 14 991.1 - -
25/02:00pm -8.7 -14.2 -15.2 59 - NE 11 15 6 8 991.2 991.6 -
25/01:30pm -9.0 -16.0 -15.1 61 - ENE 19 20 10 11 991.2 - -
25/01:00pm -9.2 -15.5 -16.3 56 - E 15 19 8 10 991.4 - -
25/12:30pm -10.5 -20.6 -16.9 59 - E 35 41 19 22 991.1 - -
25/12:00pm -10.2 -18.9 -15.5 65 - E 28 33 15 18 991.0 - -
25/11:30am -9.6 -17.9 -15.3 63 - E 26 30 14 16 991.1 - -
25/11:00am -9.3 -15.9 -14.8 64 - NE 17 20 9 11 991.3 991.7 -
25/10:30am -9.4 -16.4 -14.7 65 - ENE 19 22 10 12 991.3 - -
25/10:00am -9.8 -14.8 -14.2 70 - ESE 9 17 5 9 991.1 - -
25/09:30am -11.2 -16.6 -14.1 79 - SSE 11 15 6 8 991.3 - -
25/09:00am -11.4 -17.2 -14.5 78 - SE 13 13 7 7 991.3 - -
25/08:30am -11.6 -17.4 -14.5 79 - SSE 13 15 7 8 991.2 - -
25/08:00am -11.4 -16.8 -14.5 78 - SE 11 13 6 7 991.1 991.5 -
25/07:30am -10.8 -14.9 -14.5 74 - ESE 4 9 2 5 991.2 - -
25/07:00am -10.1 -14.6 -14.5 70 - NE 6 7 3 4 991.0 - -
25/06:30am -10.4 -15.5 -14.5 72 - NE 9 9 5 5 990.9 - -
25/06:00am -10.6 -15.7 -14.5 73 - NE 9 11 5 6 990.8 - -
25/05:30am -10.6 -15.1 -14.5 73 - NE 6 7 3 4 990.9 - -
25/05:00am -10.8 -15.5 -14.2 76 - NNE 7 9 4 5 990.8 991.2 -
25/04:30am -11.2 -16.3 -14.6 76 - NE 9 9 5 5 990.6 - -
25/04:00am -10.9 -15.9 -14.1 77 - NE 9 11 5 6 990.5 - -
25/03:30am -11.0 -17.2 -13.8 80 - NE 15 17 8 9 990.4 - -
25/03:00am -11.3 -17.8 -13.9 81 - NE 17 20 9 11 990.3 - -
25/02:30am -11.1 -17.6 -13.9 80 - NE 17 20 9 11 990.3 - -
25/02:00am -10.6 -17.7 -13.4 80 - NE 20 24 11 13 990.2 990.6 -
25/01:30am -10.3 -17.4 -13.2 79 - NE 20 24 11 13 990.1 - -
25/01:00am -10.5 -17.6 -13.3 80 - NE 20 24 11 13 990.0 - -
25/12:30am -10.6 -18.4 -13.2 81 - NE 24 28 13 15 989.7 - -
25/12:00am -10.3 -18.1 -12.6 83 - NE 24 30 13 16 989.7 - -
 
Date/Time
EDT
Temp
°C
App
Temp
°C
Dew
Point
Rel
Hum
%
Delta-T
°C
Wind Press
QNH
hPa
Press
MSL
hPa
Rain
since 9 am
mm
Dir
 
Spd
km/h
Gust
km/h
Spd
kts
Gust
kts
24/11:30pm -10.0 -17.8 -12.3 83 - NE 24 28 13 15 989.5 - -
24/11:00pm -10.6 -18.4 -12.2 88 - NNE 24 28 13 15 989.4 989.8 -
24/10:30pm -10.3 -18.1 -12.0 87 - NNE 24 33 13 18 989.2 - -
24/10:00pm -9.4 -17.1 -11.7 83 - NNE 24 30 13 16 989.1 - -
24/09:30pm -9.0 -17.5 -11.5 82 - NNE 28 33 15 18 989.0 - -
24/09:00pm -9.0 -17.1 -11.3 83 - NNE 26 32 14 17 988.9 - -
24/08:30pm -8.8 -17.6 -11.1 83 - NNE 30 37 16 20 988.7 - -
24/08:00pm -8.7 -17.9 -10.9 84 - NNE 32 39 17 21 988.6 989.0 -
24/07:30pm -8.8 -18.0 -11.0 84 - NNE 32 41 17 22 988.3 - -
24/07:00pm -8.7 -17.9 -11.2 82 - NNE 32 39 17 21 988.3 - -
24/06:30pm -8.7 -18.1 -11.2 82 - NNE 33 43 18 23 987.8 - -
24/06:00pm -8.3 -17.7 -10.7 83 - NNE 33 41 18 22 987.6 - -
24/05:30pm -7.6 -16.7 -10.0 83 - NNE 32 39 17 21 987.4 - -
24/05:00pm -7.5 -16.7 -10.3 80 - NNE 32 39 17 21 987.2 987.6 -
24/04:30pm -7.2 -16.3 -10.0 80 - NNE 32 41 17 22 986.9 - -
24/04:00pm -7.2 -15.9 -9.9 81 - NNE 30 37 16 20 986.9 - -
24/03:30pm -6.9 -14.9 -9.8 80 - NNE 26 33 14 18 986.7 - -
24/03:00pm -7.0 -14.2 -10.0 79 - NNE 22 33 12 18 986.8 - -
24/02:30pm -7.3 -14.5 -10.0 81 - NNE 22 28 12 15 986.8 - -
24/02:00pm -7.2 -14.1 -10.0 80 - NNE 20 26 11 14 986.7 987.1 -
24/01:30pm -6.9 -13.6 -10.2 77 - NNE 19 22 10 12 986.7 - -
24/01:00pm -7.2 -13.2 -10.9 75 - NNE 15 19 8 10 986.5 - -
24/12:30pm -7.0 -13.3 -10.8 74 - NE 17 19 9 10 986.3 - -
24/12:00pm -7.3 -13.7 -11.1 74 - NE 17 17 9 9 986.2 - -
24/11:30am -7.3 -12.5 -11.0 75 - NE 11 15 6 8 986.1 - -
24/11:00am -8.0 -12.9 -11.3 77 - ESE 9 11 5 6 985.8 986.2 -
24/10:30am -9.1 -14.0 -11.6 82 - SSE 9 13 5 7 985.7 - -
24/10:00am -9.0 -14.7 -11.8 80 - SW 13 17 7 9 985.6 - -
24/09:30am -7.4 -11.9 -11.6 72 - S 7 9 4 5 985.3 - -
24/09:00am -7.4 -11.9 -11.6 72 - SSW 7 15 4 8 985.3 - -
24/08:30am -7.8 -12.1 -11.3 76 - SE 6 7 3 4 985.1 - -
24/08:00am -7.9 -12.4 -11.0 78 - NE 7 11 4 6 984.9 985.3 -
24/07:30am -7.8 -12.3 -11.4 75 - ENE 7 11 4 6 984.7 - -
24/07:00am -7.5 -12.0 -11.1 75 - ENE 7 11 4 6 984.5 - -
24/06:30am -7.6 -13.2 -11.1 76 - E 13 17 7 9 984.4 - -
24/06:00am -7.6 -13.6 -10.9 77 - E 15 19 8 10 984.1 - -
24/05:30am -7.5 -14.2 -10.7 78 - ENE 19 20 10 11 983.8 - -
24/05:00am -7.8 -14.5 -10.6 80 - ENE 19 24 10 13 983.5 984.0 -
24/04:30am -7.7 -15.4 -10.5 80 - ENE 24 28 13 15 983.2 - -
24/04:00am -7.8 -16.6 -10.8 79 - ENE 30 33 16 18 983.0 - -
24/03:30am -8.0 -16.8 -11.0 79 - ENE 30 33 16 18 982.9 - -
24/03:00am -8.4 -17.3 -11.5 78 - ENE 30 32 16 17 982.8 - -
24/02:30am -8.2 -17.4 -11.3 78 - ENE 32 35 17 19 982.5 - -
24/02:00am -8.0 -17.8 -11.1 78 - ENE 35 37 19 20 982.1 982.6 -
24/01:30am -7.8 -17.2 -10.9 78 - ENE 33 37 18 20 982.0 - -
24/01:00am -7.8 -17.2 -10.5 81 - ENE 33 39 18 21 981.9 - -
24/12:30am -7.9 -17.0 -10.1 84 - ENE 32 35 17 19 981.8 - -
24/12:00am -7.7 -16.5 -10.1 83 - NE 30 33 16 18 981.5 - -
 
Date/Time
EDT
Temp
°C
App
Temp
°C
Dew
Point
Rel
Hum
%
Delta-T
°C
Wind Press
QNH
hPa
Press
MSL
hPa
Rain
since 9 am
mm
Dir
 
Spd
km/h
Gust
km/h
Spd
kts
Gust
kts
23/11:30pm -7.3 -15.3 -9.8 82 - NE 26 32 14 17 981.5 - -
23/11:00pm -7.1 -15.1 -9.5 83 - NE 26 30 14 16 981.2 981.7 -
23/10:30pm -6.4 -13.9 -9.1 81 - NE 24 30 13 16 981.3 - -
23/10:00pm -6.3 -15.0 -9.2 80 - NE 30 33 16 18 981.2 - -
23/09:30pm -6.0 -15.0 -8.9 80 - NE 32 35 17 19 980.9 - -
23/09:00pm -5.5 -14.1 -8.5 79 - NE 30 35 16 19 980.8 - -
23/08:30pm -5.4 -14.0 -8.1 81 - NE 30 35 16 19 980.6 - -
23/08:00pm -5.2 -14.2 -7.9 81 - NE 32 37 17 20 980.4 980.9 -
23/07:30pm -5.0 -12.8 -7.4 83 - NNE 26 35 14 19 980.3 - -
23/07:00pm -4.7 -12.1 -7.6 80 - NNE 24 33 13 18 980.2 - -
23/06:30pm -4.8 -13.0 -7.9 79 - NNE 28 33 15 18 980.0 - -
23/06:00pm -4.8 -12.6 -7.9 79 - NNE 26 32 14 17 979.9 - -
23/05:30pm -4.6 -12.0 -7.8 78 - NNE 24 30 13 16 979.8 - -
23/05:00pm -4.5 -11.5 -7.6 79 - NNE 22 26 12 14 979.7 980.2 -
23/04:30pm -4.1 -10.2 -8.2 73 - NNE 17 20 9 11 979.7 - -
23/04:00pm -4.5 -10.7 -8.8 72 - NNE 17 20 9 11 979.6 - -

Other Formats:

Comma delimited format used in spreadsheet applications
http://www.bom.gov.au/fwo/IDT60803/IDT60803.89611.axf

JavaScript Object Notation format (JSON) in row-major order
http://www.bom.gov.au/fwo/IDT60803/IDT60803.89611.json